sensor_id;sensor_type;location;lat;lon;timestamp;pressure;altitude;pressure_sealevel;temperature;humidity
78562;BME280;68963;52.138;5.446;2023-06-10T00:01:40;101624.63;;;20.32;55.45
78562;BME280;68963;52.138;5.446;2023-06-10T00:04:06;101625.34;;;20.27;55.49
78562;BME280;68963;52.138;5.446;2023-06-10T00:06:33;101616.41;;;20.21;55.32
78562;BME280;68963;52.138;5.446;2023-06-10T00:09:03;101625.91;;;20.17;55.03
78562;BME280;68963;52.138;5.446;2023-06-10T00:11:32;101624.53;;;20.15;55.62
78562;BME280;68963;52.138;5.446;2023-06-10T00:13:59;101628.72;;;20.11;55.85
78562;BME280;68963;52.138;5.446;2023-06-10T00:16:26;101627.06;;;20.10;55.35
78562;BME280;68963;52.138;5.446;2023-06-10T00:18:53;101635.34;;;20.08;55.02
78562;BME280;68963;52.138;5.446;2023-06-10T00:21:22;101634.75;;;20.06;55.33
78562;BME280;68963;52.138;5.446;2023-06-10T00:23:50;101626.63;;;20.01;55.10
78562;BME280;68963;52.138;5.446;2023-06-10T00:26:17;101636.34;;;19.95;54.24
78562;BME280;68963;52.138;5.446;2023-06-10T00:28:44;101627.16;;;19.91;54.01
78562;BME280;68963;52.138;5.446;2023-06-10T00:31:11;101631.34;;;19.87;54.39
78562;BME280;68963;52.138;5.446;2023-06-10T00:33:38;101628.31;;;19.84;54.28
78562;BME280;68963;52.138;5.446;2023-06-10T00:36:04;101627.75;;;19.82;53.65
78562;BME280;68963;52.138;5.446;2023-06-10T00:38:31;101635.31;;;19.85;53.41
78562;BME280;68963;52.138;5.446;2023-06-10T00:40:58;101632.28;;;19.81;54.02
78562;BME280;68963;52.138;5.446;2023-06-10T00:43:25;101645.88;;;19.79;53.62
78562;BME280;68963;52.138;5.446;2023-06-10T00:45:51;101637.03;;;19.79;52.86
78562;BME280;68963;52.138;5.446;2023-06-10T00:48:18;101640.53;;;19.79;53.66
78562;BME280;68963;52.138;5.446;2023-06-10T00:50:46;101636.69;;;19.75;52.66
78562;BME280;68963;52.138;5.446;2023-06-10T00:53:13;101638.75;;;19.73;52.96
78562;BME280;68963;52.138;5.446;2023-06-10T00:55:41;101638.19;;;19.71;52.92
78562;BME280;68963;52.138;5.446;2023-06-10T00:58:08;101638.41;;;19.70;52.71
78562;BME280;68963;52.138;5.446;2023-06-10T01:00:35;101635.16;;;19.68;52.93
78562;BME280;68963;52.138;5.446;2023-06-10T01:03:02;101628.84;;;19.62;53.19
78562;BME280;68963;52.138;5.446;2023-06-10T01:05:35;101629.88;;;19.61;52.42
78562;BME280;68963;52.138;5.446;2023-06-10T01:10:59;101635.56;;;19.53;52.64
78562;BME280;68963;52.138;5.446;2023-06-10T01:13:27;101636.00;;;19.50;52.79
78562;BME280;68963;52.138;5.446;2023-06-10T01:15:58;101633.56;;;19.48;52.96
78562;BME280;68963;52.138;5.446;2023-06-10T01:18:31;101645.50;;;19.46;53.05
78562;BME280;68963;52.138;5.446;2023-06-10T01:20:58;101642.47;;;19.42;53.22
78562;BME280;68963;52.138;5.446;2023-06-10T01:23:25;101648.50;;;19.38;53.34
78562;BME280;68963;52.138;5.446;2023-06-10T01:26:02;101637.22;;;19.36;53.61
78562;BME280;68963;52.138;5.446;2023-06-10T01:28:36;101646.72;;;19.31;53.95
78562;BME280;68963;52.138;5.446;2023-06-10T01:33:52;101646.59;;;19.26;53.95
78562;BME280;68963;52.138;5.446;2023-06-10T01:36:19;101647.50;;;19.20;54.48
78562;BME280;68963;52.138;5.446;2023-06-10T01:38:48;101640.16;;;19.16;54.40
78562;BME280;68963;52.138;5.446;2023-06-10T01:41:17;101645.72;;;19.14;54.75
78562;BME280;68963;52.138;5.446;2023-06-10T01:43:45;101641.41;;;19.13;54.90
78562;BME280;68963;52.138;5.446;2023-06-10T01:46:12;101649.06;;;19.10;55.04
78562;BME280;68963;52.138;5.446;2023-06-10T01:48:39;101644.16;;;19.06;55.38
78562;BME280;68963;52.138;5.446;2023-06-10T01:51:06;101646.28;;;19.04;55.40
78562;BME280;68963;52.138;5.446;2023-06-10T01:53:32;101641.00;;;18.98;55.20
78562;BME280;68963;52.138;5.446;2023-06-10T01:55:59;101638.56;;;18.96;55.96
78562;BME280;68963;52.138;5.446;2023-06-10T01:58:26;101641.06;;;18.91;56.08
78562;BME280;68963;52.138;5.446;2023-06-10T02:00:52;101641.50;;;18.88;56.16
78562;BME280;68963;52.138;5.446;2023-06-10T02:03:19;101643.00;;;18.84;56.78
78562;BME280;68963;52.138;5.446;2023-06-10T02:05:46;101644.50;;;18.80;56.77
78562;BME280;68963;52.138;5.446;2023-06-10T02:08:12;101648.41;;;18.77;57.17
78562;BME280;68963;52.138;5.446;2023-06-10T02:10:39;101642.25;;;18.77;57.07
78562;BME280;68963;52.138;5.446;2023-06-10T02:13:07;101644.13;;;18.76;57.32
78562;BME280;68963;52.138;5.446;2023-06-10T02:15:33;101651.53;;;18.74;57.55
78562;BME280;68963;52.138;5.446;2023-06-10T02:18:00;101652.16;;;18.70;57.43
78562;BME280;68963;52.138;5.446;2023-06-10T02:20:27;101654.44;;;18.66;58.12
78562;BME280;68963;52.138;5.446;2023-06-10T02:22:53;101650.41;;;18.64;58.28
78562;BME280;68963;52.138;5.446;2023-06-10T02:25:20;101650.59;;;18.62;58.32
78562;BME280;68963;52.138;5.446;2023-06-10T02:27:46;101654.06;;;18.63;57.84
78562;BME280;68963;52.138;5.446;2023-06-10T02:30:13;101658.22;;;18.58;58.33
78562;BME280;68963;52.138;5.446;2023-06-10T02:32:40;101666.84;;;18.61;58.51
78562;BME280;68963;52.138;5.446;2023-06-10T02:35:07;101670.56;;;18.59;59.15
78562;BME280;68963;52.138;5.446;2023-06-10T02:37:34;101666.47;;;18.57;58.98
78562;BME280;68963;52.138;5.446;2023-06-10T02:40:01;101670.63;;;18.53;59.03
78562;BME280;68963;52.138;5.446;2023-06-10T02:42:27;101665.47;;;18.51;59.92
78562;BME280;68963;52.138;5.446;2023-06-10T02:44:54;101668.00;;;18.46;59.88
78562;BME280;68963;52.138;5.446;2023-06-10T02:47:20;101663.53;;;18.40;59.79
78562;BME280;68963;52.138;5.446;2023-06-10T02:49:47;101668.88;;;18.40;59.91
78562;BME280;68963;52.138;5.446;2023-06-10T02:52:14;101669.31;;;18.37;60.16
78562;BME280;68963;52.138;5.446;2023-06-10T02:54:40;101671.59;;;18.33;60.42
78562;BME280;68963;52.138;5.446;2023-06-10T02:57:07;101670.03;;;18.26;60.78
78562;BME280;68963;52.138;5.446;2023-06-10T02:59:34;101664.09;;;18.24;60.89
78562;BME280;68963;52.138;5.446;2023-06-10T03:02:01;101666.38;;;18.20;61.03
78562;BME280;68963;52.138;5.446;2023-06-10T03:04:28;101661.25;;;18.19;60.89
78562;BME280;68963;52.138;5.446;2023-06-10T03:06:57;101663.91;;;18.19;61.29
78562;BME280;68963;52.138;5.446;2023-06-10T03:09:24;101676.06;;;18.15;61.60
78562;BME280;68963;52.138;5.446;2023-06-10T03:11:50;101680.00;;;18.12;62.02
78562;BME280;68963;52.138;5.446;2023-06-10T03:14:17;101675.69;;;18.11;62.03
78562;BME280;68963;52.138;5.446;2023-06-10T03:16:43;101675.91;;;18.09;62.26
78562;BME280;68963;52.138;5.446;2023-06-10T03:19:11;101674.47;;;18.07;62.35
78562;BME280;68963;52.138;5.446;2023-06-10T03:21:38;101674.31;;;18.02;62.46
78562;BME280;68963;52.138;5.446;2023-06-10T03:24:05;101671.28;;;17.98;62.73
78562;BME280;68963;52.138;5.446;2023-06-10T03:26:32;101675.81;;;17.98;62.57
78562;BME280;68963;52.138;5.446;2023-06-10T03:28:59;101679.28;;;17.98;62.43
78562;BME280;68963;52.138;5.446;2023-06-10T03:31:25;101679.28;;;17.98;62.50
78562;BME280;68963;52.138;5.446;2023-06-10T03:33:52;101674.97;;;17.97;63.24
78562;BME280;68963;52.138;5.446;2023-06-10T03:36:18;101677.84;;;17.96;62.96
78562;BME280;68963;52.138;5.446;2023-06-10T03:38:45;101689.56;;;17.95;63.37
78562;BME280;68963;52.138;5.446;2023-06-10T03:41:11;101686.28;;;17.93;63.42
78562;BME280;68963;52.138;5.446;2023-06-10T03:43:38;101675.84;;;17.91;63.54
78562;BME280;68963;52.138;5.446;2023-06-10T03:46:06;101680.34;;;17.91;63.57
78562;BME280;68963;52.138;5.446;2023-06-10T03:48:34;101684.06;;;17.90;63.83
78562;BME280;68963;52.138;5.446;2023-06-10T03:51:00;101685.69;;;17.91;63.76
78562;BME280;68963;52.138;5.446;2023-06-10T03:53:27;101683.03;;;17.91;63.67
78562;BME280;68963;52.138;5.446;2023-06-10T03:55:53;101688.56;;;17.89;64.06
78562;BME280;68963;52.138;5.446;2023-06-10T03:58:20;101693.06;;;17.89;64.02
78562;BME280;68963;52.138;5.446;2023-06-10T04:00:46;101698.63;;;17.87;64.35
78562;BME280;68963;52.138;5.446;2023-06-10T04:03:13;101692.50;;;17.86;64.67
78562;BME280;68963;52.138;5.446;2023-06-10T04:05:42;101693.50;;;17.85;65.20
78562;BME280;68963;52.138;5.446;2023-06-10T04:08:09;101696.38;;;17.84;65.52
78562;BME280;68963;52.138;5.446;2023-06-10T04:10:36;101695.56;;;17.83;65.65
78562;BME280;68963;52.138;5.446;2023-06-10T04:13:02;101698.44;;;17.82;65.30
78562;BME280;68963;52.138;5.446;2023-06-10T04:15:30;101693.94;;;17.82;65.56
78562;BME280;68963;52.138;5.446;2023-06-10T04:17:59;101700.91;;;17.83;65.65
78562;BME280;68963;52.138;5.446;2023-06-10T04:20:27;101699.06;;;17.84;66.07
78562;BME280;68963;52.138;5.446;2023-06-10T04:22:53;101701.50;;;17.85;66.01
78562;BME280;68963;52.138;5.446;2023-06-10T04:25:20;101704.38;;;17.84;66.86
78562;BME280;68963;52.138;5.446;2023-06-10T04:27:47;101711.34;;;17.85;66.47
78562;BME280;68963;52.138;5.446;2023-06-10T04:30:13;101707.66;;;17.86;66.25
78562;BME280;68963;52.138;5.446;2023-06-10T04:32:40;101711.94;;;17.87;66.44
78562;BME280;68963;52.138;5.446;2023-06-10T04:35:07;101705.59;;;17.88;66.54
78562;BME280;68963;52.138;5.446;2023-06-10T04:37:35;101706.78;;;17.92;66.74
78562;BME280;68963;52.138;5.446;2023-06-10T04:40:01;101709.25;;;17.94;66.83
78562;BME280;68963;52.138;5.446;2023-06-10T04:42:28;101706.97;;;17.97;66.85
78562;BME280;68963;52.138;5.446;2023-06-10T04:44:54;101710.22;;;17.99;67.28
78562;BME280;68963;52.138;5.446;2023-06-10T04:47:21;101715.94;;;18.03;66.86
78562;BME280;68963;52.138;5.446;2023-06-10T04:49:47;101720.84;;;18.06;67.15
78562;BME280;68963;52.138;5.446;2023-06-10T04:52:14;101709.38;;;18.05;67.24
78562;BME280;68963;52.138;5.446;2023-06-10T04:54:44;101720.63;;;18.07;67.34
78562;BME280;68963;52.138;5.446;2023-06-10T04:57:11;101721.22;;;18.09;67.36
78562;BME280;68963;52.138;5.446;2023-06-10T04:59:37;101715.47;;;18.13;67.07
78562;BME280;68963;52.138;5.446;2023-06-10T05:02:04;101724.69;;;18.17;67.37
78562;BME280;68963;52.138;5.446;2023-06-10T05:04:31;101724.25;;;18.20;67.18
78562;BME280;68963;52.138;5.446;2023-06-10T05:06:58;101722.78;;;18.24;67.20
78562;BME280;68963;52.138;5.446;2023-06-10T05:09:25;101717.81;;;18.27;67.04
78562;BME280;68963;52.138;5.446;2023-06-10T05:11:52;101721.47;;;18.33;67.33
78562;BME280;68963;52.138;5.446;2023-06-10T05:14:20;101723.69;;;18.36;67.55
78562;BME280;68963;52.138;5.446;2023-06-10T05:16:47;101723.03;;;18.41;67.25
78562;BME280;68963;52.138;5.446;2023-06-10T05:19:14;101717.28;;;18.44;67.18
78562;BME280;68963;52.138;5.446;2023-06-10T05:21:42;101729.13;;;18.48;66.18
78562;BME280;68963;52.138;5.446;2023-06-10T05:24:09;101717.22;;;18.50;67.49
78562;BME280;68963;52.138;5.446;2023-06-10T05:26:35;101718.66;;;18.53;67.43
78562;BME280;68963;52.138;5.446;2023-06-10T05:29:05;101718.78;;;18.58;67.59
78562;BME280;68963;52.138;5.446;2023-06-10T05:31:32;101717.91;;;18.64;67.68
78562;BME280;68963;52.138;5.446;2023-06-10T05:33:58;101723.00;;;18.72;66.99
78562;BME280;68963;52.138;5.446;2023-06-10T05:36:25;101718.41;;;18.79;67.26
78562;BME280;68963;52.138;5.446;2023-06-10T05:38:52;101718.13;;;18.88;67.06
78562;BME280;68963;52.138;5.446;2023-06-10T05:41:19;101731.16;;;18.96;66.76
78562;BME280;68963;52.138;5.446;2023-06-10T05:43:45;101728.22;;;19.04;67.13
78562;BME280;68963;52.138;5.446;2023-06-10T05:46:12;101726.88;;;19.13;66.55
78562;BME280;68963;52.138;5.446;2023-06-10T05:48:38;101726.38;;;19.23;66.05
78562;BME280;68963;52.138;5.446;2023-06-10T05:51:05;101731.66;;;19.29;66.08
78562;BME280;68963;52.138;5.446;2023-06-10T05:53:32;101732.97;;;19.39;66.58
78562;BME280;68963;52.138;5.446;2023-06-10T05:55:58;101730.78;;;19.47;66.48
78562;BME280;68963;52.138;5.446;2023-06-10T05:58:25;101732.94;;;19.57;65.76
78562;BME280;68963;52.138;5.446;2023-06-10T06:00:51;101729.16;;;19.65;65.14
78562;BME280;68963;52.138;5.446;2023-06-10T06:03:18;101724.19;;;19.68;65.26
78562;BME280;68963;52.138;5.446;2023-06-10T06:05:45;101724.66;;;19.77;64.58
78562;BME280;68963;52.138;5.446;2023-06-10T06:08:12;101725.19;;;19.86;65.04
78562;BME280;68963;52.138;5.446;2023-06-10T06:10:40;101719.50;;;19.94;64.54
78562;BME280;68963;52.138;5.446;2023-06-10T06:13:06;101729.03;;;20.01;64.36
78562;BME280;68963;52.138;5.446;2023-06-10T06:15:32;101719.06;;;20.09;64.25
78562;BME280;68963;52.138;5.446;2023-06-10T06:17:59;101724.53;;;20.14;63.78
78562;BME280;68963;52.138;5.446;2023-06-10T06:20:26;101730.72;;;20.14;63.48
78562;BME280;68963;52.138;5.446;2023-06-10T06:22:52;101722.13;;;20.24;63.25
78562;BME280;68963;52.138;5.446;2023-06-10T06:25:19;101728.53;;;20.35;63.32
78562;BME280;68963;52.138;5.446;2023-06-10T06:27:45;101723.78;;;20.48;62.73
78562;BME280;68963;52.138;5.446;2023-06-10T06:30:12;101723.22;;;20.58;61.66
78562;BME280;68963;52.138;5.446;2023-06-10T06:32:39;101724.63;;;20.61;62.65
78562;BME280;68963;52.138;5.446;2023-06-10T06:35:05;101724.41;;;20.62;62.11
78562;BME280;68963;52.138;5.446;2023-06-10T06:37:35;101715.06;;;20.65;61.50
78562;BME280;68963;52.138;5.446;2023-06-10T06:40:02;101719.50;;;20.71;62.45
78562;BME280;68963;52.138;5.446;2023-06-10T06:42:30;101728.94;;;20.85;60.98
78562;BME280;68963;52.138;5.446;2023-06-10T06:44:56;101723.44;;;20.92;61.56
78562;BME280;68963;52.138;5.446;2023-06-10T06:47:23;101721.59;;;20.92;60.79
78562;BME280;68963;52.138;5.446;2023-06-10T06:49:50;101721.69;;;20.97;60.95
78562;BME280;68963;52.138;5.446;2023-06-10T06:52:16;101721.47;;;20.99;59.88
78562;BME280;68963;52.138;5.446;2023-06-10T06:54:43;101723.66;;;21.02;59.26
78562;BME280;68963;52.138;5.446;2023-06-10T06:57:09;101715.94;;;21.06;59.20
78562;BME280;68963;52.138;5.446;2023-06-10T06:59:36;101725.72;;;21.12;58.89
78562;BME280;68963;52.138;5.446;2023-06-10T07:02:03;101723.50;;;21.20;59.00
78562;BME280;68963;52.138;5.446;2023-06-10T07:04:30;101726.63;;;21.29;58.21
78562;BME280;68963;52.138;5.446;2023-06-10T07:06:57;101726.53;;;21.36;59.69
78562;BME280;68963;52.138;5.446;2023-06-10T07:09:23;101736.06;;;21.43;57.47
78562;BME280;68963;52.138;5.446;2023-06-10T07:11:50;101736.97;;;21.49;57.55
78562;BME280;68963;52.138;5.446;2023-06-10T07:14:17;101736.34;;;21.59;57.85
78562;BME280;68963;52.138;5.446;2023-06-10T07:16:43;101744.69;;;21.74;57.16
78562;BME280;68963;52.138;5.446;2023-06-10T07:19:11;101734.03;;;21.79;57.94
78562;BME280;68963;52.138;5.446;2023-06-10T07:21:38;101731.34;;;21.79;57.21
78562;BME280;68963;52.138;5.446;2023-06-10T07:24:05;101738.44;;;21.85;58.21
78562;BME280;68963;52.138;5.446;2023-06-10T07:26:31;101737.56;;;21.97;56.60
78562;BME280;68963;52.138;5.446;2023-06-10T07:28:58;101741.00;;;22.09;57.31
78562;BME280;68963;52.138;5.446;2023-06-10T07:31:24;101736.25;;;22.28;57.14
78562;BME280;68963;52.138;5.446;2023-06-10T07:33:51;101733.16;;;22.36;57.39
78562;BME280;68963;52.138;5.446;2023-06-10T07:36:18;101726.63;;;22.49;58.03
78562;BME280;68963;52.138;5.446;2023-06-10T07:38:44;101730.78;;;22.56;56.11
78562;BME280;68963;52.138;5.446;2023-06-10T07:41:11;101733.06;;;22.64;55.10
78562;BME280;68963;52.138;5.446;2023-06-10T07:43:38;101735.06;;;22.74;56.29
78562;BME280;68963;52.138;5.446;2023-06-10T07:48:32;101739.78;;;22.84;55.06
78562;BME280;68963;52.138;5.446;2023-06-10T07:50:58;101737.00;;;22.96;54.65
78562;BME280;68963;52.138;5.446;2023-06-10T07:53:25;101737.38;;;23.04;55.04
78562;BME280;68963;52.138;5.446;2023-06-10T07:55:51;101742.34;;;23.12;53.52
78562;BME280;68963;52.138;5.446;2023-06-10T07:58:18;101746.78;;;23.24;54.09
78562;BME280;68963;52.138;5.446;2023-06-10T08:00:44;101749.69;;;23.22;52.88
78562;BME280;68963;52.138;5.446;2023-06-10T08:03:11;101734.69;;;23.26;53.35
78562;BME280;68963;52.138;5.446;2023-06-10T08:05:39;101748.75;;;23.33;53.13
78562;BME280;68963;52.138;5.446;2023-06-10T08:08:06;101744.44;;;23.32;53.68
78562;BME280;68963;52.138;5.446;2023-06-10T08:10:32;101743.00;;;23.47;53.64
78562;BME280;68963;52.138;5.446;2023-06-10T08:12:59;101741.88;;;23.43;52.43
78562;BME280;68963;52.138;5.446;2023-06-10T08:15:26;101739.50;;;23.46;54.68
78562;BME280;68963;52.138;5.446;2023-06-10T08:17:52;101738.56;;;23.57;52.55
78562;BME280;68963;52.138;5.446;2023-06-10T08:20:19;101736.56;;;23.70;52.16
78562;BME280;68963;52.138;5.446;2023-06-10T08:22:45;101730.16;;;23.76;52.88
78562;BME280;68963;52.138;5.446;2023-06-10T08:25:12;101741.78;;;23.81;51.87
78562;BME280;68963;52.138;5.446;2023-06-10T08:27:38;101730.00;;;23.88;52.06
78562;BME280;68963;52.138;5.446;2023-06-10T08:30:05;101730.63;;;24.00;51.52
78562;BME280;68963;52.138;5.446;2023-06-10T08:32:32;101736.91;;;24.05;50.59
78562;BME280;68963;52.138;5.446;2023-06-10T08:34:59;101739.09;;;24.14;51.66
78562;BME280;68963;52.138;5.446;2023-06-10T08:37:25;101738.63;;;24.22;50.46
78562;BME280;68963;52.138;5.446;2023-06-10T08:39:52;101737.63;;;24.33;49.08
78562;BME280;68963;52.138;5.446;2023-06-10T08:42:33;101742.03;;;24.39;49.36
78562;BME280;68963;52.138;5.446;2023-06-10T08:45:02;101738.03;;;24.47;49.87
78562;BME280;68963;52.138;5.446;2023-06-10T08:47:30;101739.72;;;24.53;49.26
78562;BME280;68963;52.138;5.446;2023-06-10T08:50:03;101739.75;;;24.58;50.25
78562;BME280;68963;52.138;5.446;2023-06-10T08:52:37;101738.16;;;24.62;49.64
78562;BME280;68963;52.138;5.446;2023-06-10T08:55:11;101739.75;;;24.63;47.56
78562;BME280;68963;52.138;5.446;2023-06-10T08:57:40;101738.44;;;24.66;48.70
78562;BME280;68963;52.138;5.446;2023-06-10T09:00:08;101737.66;;;24.70;48.78
78562;BME280;68963;52.138;5.446;2023-06-10T09:02:35;101738.84;;;24.90;50.17
78562;BME280;68963;52.138;5.446;2023-06-10T09:05:02;101741.91;;;25.09;46.92
78562;BME280;68963;52.138;5.446;2023-06-10T09:07:30;101743.00;;;25.08;46.31
78562;BME280;68963;52.138;5.446;2023-06-10T09:10:03;101744.94;;;25.17;46.14
78562;BME280;68963;52.138;5.446;2023-06-10T09:12:34;101736.88;;;25.27;47.08
78562;BME280;68963;52.138;5.446;2023-06-10T09:15:02;101739.88;;;25.36;47.09
78562;BME280;68963;52.138;5.446;2023-06-10T09:17:29;101733.69;;;25.46;45.98
78562;BME280;68963;52.138;5.446;2023-06-10T09:19:56;101736.16;;;25.52;46.79
78562;BME280;68963;52.138;5.446;2023-06-10T09:22:24;101735.63;;;25.56;47.54
78562;BME280;68963;52.138;5.446;2023-06-10T09:25:07;101732.38;;;25.59;46.82
78562;BME280;68963;52.138;5.446;2023-06-10T09:27:51;101741.84;;;25.71;45.17
78562;BME280;68963;52.138;5.446;2023-06-10T09:30:27;101740.78;;;25.72;43.98
78562;BME280;68963;52.138;5.446;2023-06-10T09:32:55;101738.94;;;25.83;45.66
78562;BME280;68963;52.138;5.446;2023-06-10T09:35:26;101737.59;;;25.96;45.19
78562;BME280;68963;52.138;5.446;2023-06-10T09:37:54;101733.56;;;26.09;44.20
78562;BME280;68963;52.138;5.446;2023-06-10T09:40:21;101735.69;;;26.07;44.16
78562;BME280;68963;52.138;5.446;2023-06-10T09:42:53;101741.94;;;26.22;46.72
78562;BME280;68963;52.138;5.446;2023-06-10T09:45:21;101731.88;;;26.43;44.77
78562;BME280;68963;52.138;5.446;2023-06-10T09:47:52;101729.22;;;26.54;43.78
78562;BME280;68963;52.138;5.446;2023-06-10T09:50:20;101729.47;;;26.62;41.28
78562;BME280;68963;52.138;5.446;2023-06-10T09:52:47;101731.34;;;26.67;40.98
78562;BME280;68963;52.138;5.446;2023-06-10T09:55:17;101725.94;;;26.77;41.56
78562;BME280;68963;52.138;5.446;2023-06-10T09:57:44;101726.72;;;26.78;41.88
78562;BME280;68963;52.138;5.446;2023-06-10T10:00:15;101727.50;;;26.88;40.69
78562;BME280;68963;52.138;5.446;2023-06-10T10:02:45;101726.94;;;26.96;40.34
78562;BME280;68963;52.138;5.446;2023-06-10T10:05:15;101726.91;;;27.07;40.04
78562;BME280;68963;52.138;5.446;2023-06-10T10:07:42;101731.75;;;27.15;39.37
78562;BME280;68963;52.138;5.446;2023-06-10T10:10:10;101720.09;;;27.19;38.77
78562;BME280;68963;52.138;5.446;2023-06-10T10:12:38;101717.84;;;27.32;38.80
78562;BME280;68963;52.138;5.446;2023-06-10T10:15:07;101717.00;;;27.41;37.80
78562;BME280;68963;52.138;5.446;2023-06-10T10:17:40;101709.38;;;27.49;37.58
78562;BME280;68963;52.138;5.446;2023-06-10T10:20:12;101712.78;;;27.64;39.87
78562;BME280;68963;52.138;5.446;2023-06-10T10:22:40;101718.69;;;27.72;38.63
78562;BME280;68963;52.138;5.446;2023-06-10T10:25:23;101714.91;;;27.78;38.35
78562;BME280;68963;52.138;5.446;2023-06-10T10:28:03;101708.25;;;27.99;36.81
78562;BME280;68963;52.138;5.446;2023-06-10T10:30:40;101709.19;;;28.13;35.65
78562;BME280;68963;52.138;5.446;2023-06-10T10:33:16;101705.00;;;28.26;34.95
78562;BME280;68963;52.138;5.446;2023-06-10T10:35:45;101705.72;;;28.37;34.98
78562;BME280;68963;52.138;5.446;2023-06-10T10:38:12;101706.28;;;28.34;34.82
78562;BME280;68963;52.138;5.446;2023-06-10T10:40:40;101711.13;;;28.37;33.33
78562;BME280;68963;52.138;5.446;2023-06-10T10:43:08;101704.09;;;28.36;33.73
78562;BME280;68963;52.138;5.446;2023-06-10T10:45:35;101704.22;;;28.55;34.68
78562;BME280;68963;52.138;5.446;2023-06-10T10:48:08;101705.97;;;28.64;33.53
78562;BME280;68963;52.138;5.446;2023-06-10T10:50:38;101700.69;;;28.78;32.94
78562;BME280;68963;52.138;5.446;2023-06-10T10:53:05;101704.59;;;28.91;35.33
78562;BME280;68963;52.138;5.446;2023-06-10T10:55:32;101696.66;;;29.00;33.46
78562;BME280;68963;52.138;5.446;2023-06-10T10:58:06;101690.66;;;28.98;33.26
78562;BME280;68963;52.138;5.446;2023-06-10T11:00:35;101698.47;;;29.04;32.08
78562;BME280;68963;52.138;5.446;2023-06-10T11:08:04;101688.88;;;29.31;31.73
78562;BME280;68963;52.138;5.446;2023-06-10T11:10:38;101698.78;;;29.41;31.93
78562;BME280;68963;52.138;5.446;2023-06-10T11:13:10;101702.69;;;29.53;31.47
78562;BME280;68963;52.138;5.446;2023-06-10T11:15:50;101691.75;;;29.40;31.07
78562;BME280;68963;52.138;5.446;2023-06-10T11:18:24;101683.25;;;29.46;31.43
78562;BME280;68963;52.138;5.446;2023-06-10T11:20:59;101692.31;;;29.60;30.63
78562;BME280;68963;52.138;5.446;2023-06-10T11:31:25;101683.00;;;29.80;31.08
78562;BME280;68963;52.138;5.446;2023-06-10T11:33:54;101683.75;;;30.00;28.97
78562;BME280;68963;52.138;5.446;2023-06-10T11:36:22;101684.47;;;30.05;30.77
78562;BME280;68963;52.138;5.446;2023-06-10T11:38:50;101676.22;;;30.11;29.71
78562;BME280;68963;52.138;5.446;2023-06-10T11:41:19;101678.34;;;30.14;29.62
78562;BME280;68963;52.138;5.446;2023-06-10T11:43:47;101680.59;;;30.25;30.59
78562;BME280;68963;52.138;5.446;2023-06-10T11:46:14;101669.03;;;30.20;29.82
78562;BME280;68963;52.138;5.446;2023-06-10T11:48:55;101676.97;;;30.30;29.74
78562;BME280;68963;52.138;5.446;2023-06-10T11:51:24;101671.06;;;30.28;29.28
78562;BME280;68963;52.138;5.446;2023-06-10T11:53:52;101677.69;;;30.22;29.84
78562;BME280;68963;52.138;5.446;2023-06-10T11:56:19;101669.75;;;30.39;30.81
78562;BME280;68963;52.138;5.446;2023-06-10T11:58:52;101663.31;;;30.35;30.03
78562;BME280;68963;52.138;5.446;2023-06-10T12:01:21;101665.31;;;30.29;29.02
78562;BME280;68963;52.138;5.446;2023-06-10T12:03:58;101663.91;;;30.46;29.31
78562;BME280;68963;52.138;5.446;2023-06-10T12:06:25;101667.63;;;30.36;27.31
78562;BME280;68963;52.138;5.446;2023-06-10T12:08:53;101666.94;;;30.44;29.29
78562;BME280;68963;52.138;5.446;2023-06-10T12:11:20;101662.00;;;30.60;29.29
78562;BME280;68963;52.138;5.446;2023-06-10T12:13:49;101659.50;;;30.64;27.28
78562;BME280;68963;52.138;5.446;2023-06-10T12:16:16;101651.53;;;30.67;27.61
78562;BME280;68963;52.138;5.446;2023-06-10T12:18:44;101649.41;;;30.64;28.91
78562;BME280;68963;52.138;5.446;2023-06-10T12:21:24;101642.94;;;30.74;28.51
78562;BME280;68963;52.138;5.446;2023-06-10T12:24:10;101641.22;;;30.92;28.93
78562;BME280;68963;52.138;5.446;2023-06-10T12:26:43;101639.88;;;31.03;28.56
78562;BME280;68963;52.138;5.446;2023-06-10T12:29:18;101634.72;;;31.15;28.07
78562;BME280;68963;52.138;5.446;2023-06-10T12:34:19;101629.25;;;31.51;28.72
78562;BME280;68963;52.138;5.446;2023-06-10T12:36:49;101642.56;;;31.53;28.04
78562;BME280;68963;52.138;5.446;2023-06-10T12:39:16;101643.13;;;31.64;27.31
78562;BME280;68963;52.138;5.446;2023-06-10T12:41:49;101635.59;;;31.69;26.58
78562;BME280;68963;52.138;5.446;2023-06-10T12:44:17;101632.41;;;31.67;26.90
78562;BME280;68963;52.138;5.446;2023-06-10T12:46:43;101635.13;;;31.67;26.53
78562;BME280;68963;52.138;5.446;2023-06-10T12:49:20;101634.03;;;31.46;27.24
78562;BME280;68963;52.138;5.446;2023-06-10T12:51:47;101636.69;;;31.60;28.20
78562;BME280;68963;52.138;5.446;2023-06-10T12:54:14;101637.47;;;31.60;26.87
78562;BME280;68963;52.138;5.446;2023-06-10T12:56:40;101633.38;;;31.71;26.13
78562;BME280;68963;52.138;5.446;2023-06-10T12:59:07;101641.41;;;31.99;26.59
78562;BME280;68963;52.138;5.446;2023-06-10T13:01:33;101637.06;;;31.98;26.26
78562;BME280;68963;52.138;5.446;2023-06-10T13:04:00;101639.00;;;31.97;26.48
78562;BME280;68963;52.138;5.446;2023-06-10T13:06:27;101634.72;;;32.05;27.18
78562;BME280;68963;52.138;5.446;2023-06-10T13:08:54;101632.97;;;32.09;26.12
78562;BME280;68963;52.138;5.446;2023-06-10T13:11:20;101629.78;;;32.16;26.99
78562;BME280;68963;52.138;5.446;2023-06-10T13:13:47;101628.66;;;32.17;26.63
78562;BME280;68963;52.138;5.446;2023-06-10T13:16:13;101635.88;;;32.21;26.04
78562;BME280;68963;52.138;5.446;2023-06-10T13:18:40;101626.44;;;32.19;26.29